Terminal Aerodrome Forecast
Issued by NWS

Home | Current Version | Previous Version | Text Only | Print | Product List | Glossary On
Versions: 1 2 3 4 5 6 7 8 9 10 11 12 13 14 15 16 17 18
000
FTUS43 KICT 270520
TAFHUT
TAF
KHUT 270520Z 2706/2806 16008KT P6SM BKN250
     FM270700 17008KT P6SM VCTS BKN100CB
      TEMPO 2707/2709 VRB10G20KT -TSRA
     FM271200 17008KT P6SM SCT100 BKN250
     FM271500 18013KT P6SM SCT250
     FM271800 18018G26KT P6SM SCT250
     FM280100 17013KT P6SM SCT250=

USA.gov is the U.S. government's official web portal to all federal, state and local government web resources and services.